Terminal Aerodrome Forecast
Issued by NWS

Home | Current Version | Previous Version | Text Only | Print | Product List | Glossary On
Versions: 1 2 3 4 5 6 7 8 9 10 11 12 13 14 15
000
FTUS41 KPBZ 221722
TAFMGW
TAF
KMGW 221722Z 2218/2318 32008KT P6SM BKN025
     FM222100 32007KT P6SM BKN035
     FM230000 32006KT P6SM SCT050=

USA.gov is the U.S. government's official web portal to all federal, state and local government web resources and services.